createdAt,value
2019-06-01T00:00:20.253Z,0.00
2019-06-01T00:01:20.275Z,0.00
2019-06-01T00:02:20.225Z,0.00
2019-06-01T00:03:20.294Z,0.00
2019-06-01T00:04:20.204Z,0.00
2019-06-01T00:05:20.194Z,0.00
2019-06-01T00:06:20.183Z,0.00
2019-06-01T00:07:20.167Z,0.00
2019-06-01T00:08:20.158Z,0.00
2019-06-01T00:09:20.356Z,0.00
2019-06-01T00:10:20.133Z,0.00
2019-06-01T00:11:20.122Z,0.00
2019-06-01T00:12:20.115Z,0.00
2019-06-01T00:13:20.131Z,0.00
2019-06-01T00:14:20.087Z,0.00
2019-06-01T00:15:20.147Z,0.00
2019-06-01T00:16:20.074Z,0.00
2019-06-01T00:17:20.129Z,0.00
2019-06-01T00:18:20.042Z,0.00
2019-06-01T00:19:20.035Z,0.00
2019-06-01T00:20:20.062Z,0.00
2019-06-01T00:21:20.076Z,0.00
2019-06-01T00:22:19.997Z,0.00
2019-06-01T00:23:19.986Z,0.00
2019-06-01T00:24:19.984Z,0.00
2019-06-01T00:25:19.967Z,0.00
2019-06-01T00:26:19.957Z,0.00
2019-06-01T00:27:20.021Z,0.00
2019-06-01T00:28:19.985Z,0.00
2019-06-01T00:29:19.918Z,0.00
2019-06-01T00:30:26.948Z,0.00
2019-06-01T00:31:20.922Z,0.00
2019-06-01T00:32:19.891Z,0.00
2019-06-01T00:33:19.942Z,0.00
2019-06-01T00:34:19.871Z,0.00
2019-06-01T00:35:19.851Z,0.00
2019-06-01T00:36:19.838Z,0.00
2019-06-01T00:37:19.829Z,0.00
2019-06-01T00:38:20.056Z,0.00
2019-06-01T00:39:19.875Z,0.00
2019-06-01T00:40:19.805Z,0.00
2019-06-01T00:41:19.783Z,0.00
2019-06-01T00:42:19.770Z,0.00
2019-06-01T00:43:19.821Z,0.00
2019-06-01T00:44:19.764Z,0.00
2019-06-01T00:45:19.949Z,0.00
2019-06-01T00:46:19.725Z,0.00
2019-06-01T00:47:19.717Z,0.00
2019-06-01T00:48:19.702Z,0.00
2019-06-01T00:49:19.692Z,0.00
2019-06-01T00:50:19.683Z,0.00
2019-06-01T00:51:19.736Z,0.00
2019-06-01T00:52:19.656Z,0.00
2019-06-01T00:53:19.650Z,0.00
2019-06-01T00:54:19.634Z,0.00
2019-06-01T00:55:19.629Z,0.00
2019-06-01T00:56:19.636Z,0.00
2019-06-01T00:57:22.086Z,0.00
2019-06-01T00:58:19.590Z,0.00
2019-06-01T00:59:19.578Z,0.00
2019-06-01T01:00:19.569Z,0.00
2019-06-01T01:01:19.556Z,0.00
2019-06-01T01:02:19.545Z,0.00
2019-06-01T01:03:19.754Z,0.00
2019-06-01T01:04:19.522Z,0.00
2019-06-01T01:05:19.511Z,0.00
2019-06-01T01:06:19.512Z,0.00
2019-06-01T01:07:19.494Z,0.00
2019-06-01T01:08:19.478Z,0.00
2019-06-01T01:09:19.679Z,0.00
2019-06-01T01:10:19.455Z,0.00
2019-06-01T01:11:19.446Z,0.00
2019-06-01T01:12:19.434Z,0.00
2019-06-01T01:13:19.423Z,0.00
2019-06-01T01:14:19.409Z,0.00
2019-06-01T01:15:19.620Z,0.00
2019-06-01T01:16:19.387Z,0.00
2019-06-01T01:17:19.376Z,0.00
2019-06-01T01:18:19.367Z,0.00
2019-06-01T01:19:19.354Z,0.00
2019-06-01T01:20:19.346Z,0.00
2019-06-01T01:21:19.410Z,0.00
2019-06-01T01:22:19.323Z,0.00
2019-06-01T01:23:19.310Z,0.00
2019-06-01T01:24:19.299Z,0.00
2019-06-01T01:25:19.289Z,0.00
2019-06-01T01:26:19.297Z,0.00
2019-06-01T01:27:19.331Z,0.00
2019-06-01T01:28:19.256Z,0.00
2019-06-01T01:29:19.244Z,0.00
2019-06-01T01:30:19.230Z,0.00
2019-06-01T01:31:19.219Z,0.00
2019-06-01T01:32:19.208Z,0.00
2019-06-01T01:33:19.412Z,0.00
2019-06-01T01:34:19.190Z,0.00
2019-06-01T01:35:19.194Z,0.00
2019-06-01T01:36:19.163Z,0.00
2019-06-01T01:37:19.155Z,0.00
2019-06-01T01:38:19.140Z,0.00
2019-06-01T01:39:19.200Z,0.00
2019-06-01T01:40:19.147Z,0.00
2019-06-01T01:41:19.106Z,0.00
2019-06-01T01:42:19.099Z,0.00
2019-06-01T01:43:19.085Z,0.00
2019-06-01T01:44:19.073Z,0.00
2019-06-01T01:45:19.275Z,0.00
2019-06-01T01:46:19.055Z,0.00
2019-06-01T01:47:19.042Z,0.00
2019-06-01T01:48:19.029Z,0.00
2019-06-01T01:49:19.019Z,0.00
2019-06-01T01:50:19.006Z,0.00
2019-06-01T01:51:19.063Z,0.00
2019-06-01T01:52:18.984Z,0.00
2019-06-01T01:53:18.972Z,0.00
2019-06-01T01:54:18.960Z,0.00
2019-06-01T01:55:18.954Z,0.00
2019-06-01T01:56:18.941Z,0.00
2019-06-01T01:57:19.137Z,0.00
2019-06-01T01:58:18.926Z,0.00
2019-06-01T01:59:18.905Z,0.00
2019-06-01T02:00:18.894Z,0.00
2019-06-01T02:01:22.687Z,0.00
2019-06-01T02:02:18.870Z,0.00
2019-06-01T02:03:18.935Z,0.00
2019-06-01T02:04:18.847Z,0.00
2019-06-01T02:05:18.836Z,0.00
2019-06-01T02:06:18.839Z,0.00
2019-06-01T02:07:18.812Z,0.00
2019-06-01T02:08:18.814Z,0.00
2019-06-01T02:09:19.003Z,0.00
2019-06-01T02:10:18.778Z,0.00
2019-06-01T02:11:18.773Z,0.00
2019-06-01T02:12:18.754Z,0.00
2019-06-01T02:13:18.745Z,0.00
2019-06-01T02:14:18.790Z,0.00
2019-06-01T02:15:18.790Z,0.00
2019-06-01T02:16:18.725Z,0.00
2019-06-01T02:17:18.698Z,0.00
2019-06-01T02:18:18.690Z,0.00
2019-06-01T02:19:18.678Z,0.00
2019-06-01T02:20:18.668Z,0.00
2019-06-01T02:21:18.866Z,0.00
2019-06-01T02:22:18.644Z,0.00
2019-06-01T02:23:18.631Z,0.00
2019-06-01T02:24:18.619Z,0.00
2019-06-01T02:25:18.611Z,4.00
2019-06-01T02:26:18.596Z,4.00
2019-06-01T02:27:18.653Z,4.00
2019-06-01T02:28:18.573Z,4.00
2019-06-01T02:29:18.564Z,4.00
2019-06-01T02:30:18.553Z,4.00
2019-06-01T02:31:18.545Z,4.00
2019-06-01T02:32:18.534Z,8.00
2019-06-01T02:33:18.591Z,4.00
2019-06-01T02:34:18.525Z,8.00
2019-06-01T02:35:18.495Z,8.00
2019-06-01T02:36:18.490Z,8.00
2019-06-01T02:37:18.473Z,12.00
2019-06-01T02:38:18.465Z,12.00
2019-06-01T02:39:18.679Z,12.00
2019-06-01T02:40:18.442Z,12.00
2019-06-01T02:41:18.437Z,16.00
2019-06-01T02:42:18.421Z,16.00
2019-06-01T02:43:18.407Z,24.00
2019-06-01T02:44:18.395Z,24.00
2019-06-01T02:45:18.452Z,28.00
2019-06-01T02:46:18.372Z,32.00
2019-06-01T02:47:18.363Z,36.00
2019-06-01T02:48:18.365Z,40.00
2019-06-01T02:49:18.338Z,48.00
2019-06-01T02:50:18.333Z,56.00
2019-06-01T02:51:18.531Z,60.00
2019-06-01T02:52:18.311Z,68.00
2019-06-01T02:53:18.294Z,72.00
2019-06-01T02:54:18.282Z,80.00
2019-06-01T02:55:18.273Z,92.00
2019-06-01T02:56:18.258Z,96.00
2019-06-01T02:57:18.461Z,108.00
2019-06-01T02:58:18.243Z,120.00
2019-06-01T02:59:18.234Z,128.00
2019-06-01T03:00:18.213Z,144.00
2019-06-01T03:01:18.208Z,156.00
2019-06-01T03:02:18.198Z,164.00
2019-06-01T03:03:18.397Z,184.00
2019-06-01T03:04:18.170Z,200.00
2019-06-01T03:05:18.160Z,212.00
2019-06-01T03:06:18.146Z,228.00
2019-06-01T03:07:18.135Z,248.00
2019-06-01T03:08:18.125Z,268.00
2019-06-01T03:09:18.179Z,288.00
2019-06-01T03:10:18.105Z,312.00
2019-06-01T03:11:18.096Z,332.00
2019-06-01T03:12:18.089Z,352.00
2019-06-01T03:13:18.073Z,376.00
2019-06-01T03:14:18.059Z,400.00
2019-06-01T03:15:18.263Z,424.00
2019-06-01T03:16:18.039Z,456.00
2019-06-01T03:17:18.034Z,480.00
2019-06-01T03:18:18.014Z,512.00
2019-06-01T03:19:18.002Z,544.00
2019-06-01T03:20:17.994Z,576.00
2019-06-01T03:21:18.051Z,612.00
2019-06-01T03:22:17.967Z,644.00
2019-06-01T03:23:17.956Z,684.00
2019-06-01T03:24:17.951Z,720.00
2019-06-01T03:25:17.934Z,764.00
2019-06-01T03:26:17.925Z,808.00
2019-06-01T03:27:18.127Z,856.00
2019-06-01T03:28:17.901Z,904.00
2019-06-01T03:29:17.891Z,948.00
2019-06-01T03:30:17.883Z,996.00
2019-06-01T03:31:17.871Z,1044.00
2019-06-01T03:32:34.408Z,1096.00
2019-06-01T03:33:18.915Z,1144.00
2019-06-01T03:34:17.837Z,1200.00
2019-06-01T03:35:17.822Z,1256.00
2019-06-01T03:36:17.811Z,1308.00
2019-06-01T03:37:17.801Z,1364.00
2019-06-01T03:38:17.793Z,1416.00
2019-06-01T03:39:17.851Z,1468.00
2019-06-01T03:40:23.824Z,1520.00
2019-06-01T03:41:18.754Z,1564.00
2019-06-01T03:42:17.743Z,1612.00
2019-06-01T03:43:17.732Z,1660.00
2019-06-01T03:44:17.720Z,1704.00
2019-06-01T03:45:21.236Z,1748.00
2019-06-01T03:46:17.701Z,1788.00
2019-06-01T03:47:17.688Z,1836.00
2019-06-01T03:48:17.678Z,1880.00
2019-06-01T03:49:17.680Z,1924.00
2019-06-01T03:50:17.655Z,1976.00
2019-06-01T03:51:17.854Z,2032.00
2019-06-01T03:52:17.633Z,2096.00
2019-06-01T03:53:17.625Z,2156.00
2019-06-01T03:54:17.619Z,2212.00
2019-06-01T03:55:17.599Z,2276.00
2019-06-01T03:56:17.587Z,2332.00
2019-06-01T03:57:17.678Z,2388.00
2019-06-01T03:58:17.569Z,2444.00
2019-06-01T03:59:17.555Z,2504.00
2019-06-01T04:00:17.543Z,2568.00
2019-06-01T04:01:17.531Z,2632.00
2019-06-01T04:02:17.524Z,2692.00
2019-06-01T04:03:17.580Z,2748.00
2019-06-01T04:04:17.505Z,2804.00
2019-06-01T04:05:17.495Z,2864.00
2019-06-01T04:06:17.475Z,2920.00
2019-06-01T04:07:17.469Z,2968.00
2019-06-01T04:08:17.458Z,3020.00
2019-06-01T04:09:17.657Z,3076.00
2019-06-01T04:10:17.433Z,3124.00
2019-06-01T04:11:17.443Z,3168.00
2019-06-01T04:12:17.407Z,3216.00
2019-06-01T04:13:17.400Z,3256.00
2019-06-01T04:14:17.388Z,3300.00
2019-06-01T04:15:17.450Z,3344.00
2019-06-01T04:16:17.362Z,3384.00
2019-06-01T04:17:17.353Z,3424.00
2019-06-01T04:18:17.341Z,3464.00
2019-06-01T04:19:17.347Z,3504.00
2019-06-01T04:20:17.318Z,3556.00
2019-06-01T04:21:17.530Z,3604.00
2019-06-01T04:22:17.293Z,3648.00
2019-06-01T04:23:17.286Z,3696.00
2019-06-01T04:24:17.270Z,3740.00
2019-06-01T04:25:17.260Z,3788.00
2019-06-01T04:26:17.250Z,3828.00
2019-06-01T04:27:17.455Z,3868.00
2019-06-01T04:28:17.228Z,3912.00
2019-06-01T04:29:17.214Z,3948.00
2019-06-01T04:30:17.210Z,3988.00
2019-06-01T04:31:17.213Z,4024.00
2019-06-01T04:32:17.179Z,4060.00
2019-06-01T04:33:17.238Z,4092.00
2019-06-01T04:34:17.156Z,4128.00
2019-06-01T04:35:17.172Z,4172.00
2019-06-01T04:36:17.137Z,4212.00
2019-06-01T04:37:17.128Z,4236.00
2019-06-01T04:38:17.112Z,4260.00
2019-06-01T04:39:17.320Z,4284.00
2019-06-01T04:40:17.098Z,4308.00
2019-06-01T04:41:17.110Z,4328.00
2019-06-01T04:42:17.067Z,4344.00
2019-06-01T04:43:17.106Z,4356.00
2019-06-01T04:44:18.416Z,4380.00
2019-06-01T04:45:17.250Z,4404.00
2019-06-01T04:46:17.022Z,4440.00
2019-06-01T04:47:17.013Z,4492.00
2019-06-01T04:48:17.013Z,4528.00
2019-06-01T04:49:16.989Z,4576.00
2019-06-01T04:50:16.977Z,4628.00
2019-06-01T04:51:17.043Z,4676.00
2019-06-01T04:52:16.955Z,4728.00
2019-06-01T04:53:16.942Z,4780.00
2019-06-01T04:54:16.934Z,4836.00
2019-06-01T04:55:16.950Z,4892.00
2019-06-01T04:56:16.909Z,4964.00
2019-06-01T04:57:17.116Z,5032.00
2019-06-01T04:58:16.887Z,5072.00
2019-06-01T04:59:16.875Z,5100.00
2019-06-01T05:00:25.743Z,5128.00
2019-06-01T05:01:17.857Z,5148.00
2019-06-01T05:02:16.850Z,5152.00
2019-06-01T05:03:17.056Z,5152.00
2019-06-01T05:04:16.921Z,5156.00
2019-06-01T05:05:16.808Z,5156.00
2019-06-01T05:06:16.815Z,5140.00
2019-06-01T05:07:16.821Z,5128.00
2019-06-01T05:08:16.773Z,5116.00
2019-06-01T05:09:16.894Z,5132.00
2019-06-01T05:10:16.755Z,5152.00
2019-06-01T05:11:16.742Z,5172.00
2019-06-01T05:12:16.727Z,5192.00
2019-06-01T05:13:16.725Z,5220.00
2019-06-01T05:14:16.766Z,5264.00
2019-06-01T05:15:16.768Z,5316.00
2019-06-01T05:16:16.727Z,5380.00
2019-06-01T05:17:16.857Z,5460.00
2019-06-01T05:18:19.518Z,5528.00
2019-06-01T05:19:16.837Z,5592.00
2019-06-01T05:20:16.719Z,5644.00
2019-06-01T05:21:16.937Z,5704.00
2019-06-01T05:22:16.774Z,5768.00
2019-06-01T05:23:16.980Z,5816.00
2019-06-01T05:24:17.178Z,5896.00
2019-06-01T05:25:17.170Z,6040.00
2019-06-01T05:26:17.162Z,6128.00
2019-06-01T05:27:17.327Z,6188.00
2019-06-01T05:28:17.469Z,6272.00
2019-06-01T05:29:18.026Z,6316.00
2019-06-01T05:30:17.624Z,6368.00
2019-06-01T05:31:23.436Z,6436.00
2019-06-01T05:32:18.731Z,6524.00
2019-06-01T05:33:31.044Z,6704.00
2019-06-01T05:34:18.375Z,6992.00
2019-06-01T05:35:16.469Z,7388.00
2019-06-01T05:36:16.459Z,7868.00
2019-06-01T05:37:16.708Z,8636.00
2019-06-01T05:38:16.630Z,9164.00
2019-06-01T05:39:16.469Z,9128.00
2019-06-01T05:40:16.714Z,8856.00
2019-06-01T05:41:16.681Z,8740.00
2019-06-01T05:42:16.963Z,8740.00
2019-06-01T05:43:19.257Z,9008.00
2019-06-01T05:44:17.046Z,9212.00
2019-06-01T05:45:17.169Z,9016.00
2019-06-01T05:46:16.345Z,8716.00
2019-06-01T05:47:16.334Z,8864.00
2019-06-01T05:48:23.619Z,8216.00
2019-06-01T05:49:18.588Z,7940.00
2019-06-01T05:50:16.434Z,8616.00
2019-06-01T05:51:18.443Z,10820.00
2019-06-01T05:52:16.690Z,16960.00
2019-06-01T05:53:16.714Z,26272.00
2019-06-01T05:54:16.700Z,25216.00
2019-06-01T05:55:16.799Z,23968.00
2019-06-01T05:56:16.856Z,25024.00
2019-06-01T05:57:16.795Z,27616.00
2019-06-01T05:58:17.262Z,26912.00
2019-06-01T05:59:16.200Z,28640.00
2019-06-01T06:00:17.222Z,30272.00
2019-06-01T06:01:16.493Z,29664.00
2019-06-01T06:02:17.374Z,29472.00
2019-06-01T06:03:21.774Z,14836.00
2019-06-01T06:04:17.561Z,30368.00
2019-06-01T06:05:16.658Z,34528.00
2019-06-01T06:06:16.120Z,30656.00
2019-06-01T06:07:16.840Z,22624.00
2019-06-01T06:08:16.100Z,24128.00
2019-06-01T06:09:17.098Z,26624.00
2019-06-01T06:10:16.139Z,15428.00
2019-06-01T06:11:16.976Z,18304.00
2019-06-01T06:12:17.184Z,17472.00
2019-06-01T06:13:17.356Z,15248.00
2019-06-01T06:14:17.430Z,15808.00
2019-06-01T06:15:16.024Z,24832.00
2019-06-01T06:16:16.010Z,33376.00
2019-06-01T06:17:17.509Z,16864.00
2019-06-01T06:18:15.990Z,21504.00
2019-06-01T06:19:20.221Z,17760.00
2019-06-01T06:20:16.032Z,16616.00
2019-06-01T06:21:16.093Z,16128.00
2019-06-01T06:22:16.206Z,16832.00
2019-06-01T06:23:16.480Z,17504.00
2019-06-01T06:24:16.391Z,18528.00
2019-06-01T06:25:16.124Z,17472.00
2019-06-01T06:26:17.292Z,20256.00
2019-06-01T06:27:16.455Z,17536.00
2019-06-01T06:28:16.685Z,19552.00
2019-06-01T06:29:16.903Z,21888.00
2019-06-01T06:30:16.932Z,20320.00
2019-06-01T06:31:17.018Z,20416.00
2019-06-01T06:32:17.068Z,31712.00
2019-06-01T06:33:15.825Z,21152.00
2019-06-01T06:34:15.817Z,19456.00
2019-06-01T06:35:15.803Z,18592.00
2019-06-01T06:36:15.789Z,16472.00
2019-06-01T06:37:15.865Z,16292.00
2019-06-01T06:38:15.766Z,15612.00
2019-06-01T06:39:15.864Z,22464.00
2019-06-01T06:40:16.005Z,14300.00
2019-06-01T06:41:16.063Z,14020.00
2019-06-01T06:42:16.086Z,15052.00
2019-06-01T06:43:21.222Z,30080.00
2019-06-01T06:44:16.710Z,13448.00
2019-06-01T06:45:16.561Z,16352.00
2019-06-01T06:46:16.557Z,15080.00
2019-06-01T06:47:16.663Z,36352.00
2019-06-01T06:48:16.880Z,16448.00
2019-06-01T06:49:16.977Z,12560.00
2019-06-01T06:50:16.448Z,12664.00
2019-06-01T06:51:15.643Z,13228.00
2019-06-01T06:52:15.611Z,13976.00
2019-06-01T06:53:25.418Z,14088.00
2019-06-01T06:54:17.657Z,13768.00
2019-06-01T06:55:15.758Z,13640.00
2019-06-01T06:56:15.745Z,13768.00
2019-06-01T06:57:15.964Z,13848.00
2019-06-01T06:58:15.997Z,13956.00
2019-06-01T06:59:16.199Z,14104.00
2019-06-01T07:00:16.377Z,14416.00
2019-06-01T07:01:16.764Z,14916.00
2019-06-01T07:02:16.688Z,15404.00
2019-06-01T07:03:15.489Z,16280.00
2019-06-01T07:04:15.479Z,16444.00
2019-06-01T07:05:15.470Z,16588.00
2019-06-01T07:06:15.528Z,16424.00
2019-06-01T07:07:15.443Z,15628.00
2019-06-01T07:08:15.432Z,15216.00
2019-06-01T07:09:15.437Z,15064.00
2019-06-01T07:10:15.410Z,13208.00
2019-06-01T07:11:15.411Z,14136.00
2019-06-01T07:12:15.598Z,13352.00
2019-06-01T07:13:15.380Z,13144.00
2019-06-01T07:14:15.375Z,13040.00
2019-06-01T07:15:15.367Z,13072.00
2019-06-01T07:16:15.343Z,13240.00
2019-06-01T07:17:15.994Z,13352.00
2019-06-01T07:18:15.386Z,13372.00
2019-06-01T07:19:15.324Z,13496.00
2019-06-01T07:20:15.310Z,13800.00
2019-06-01T07:21:15.294Z,14004.00
2019-06-01T07:22:17.156Z,14500.00
2019-06-01T07:23:15.268Z,15284.00
2019-06-01T07:24:15.466Z,15924.00
2019-06-01T07:25:15.244Z,16612.00
2019-06-01T07:26:15.265Z,16728.00
2019-06-01T07:27:15.223Z,17600.00
2019-06-01T07:28:15.253Z,19456.00
2019-06-01T07:29:15.237Z,21280.00
2019-06-01T07:30:15.266Z,23904.00
2019-06-01T07:31:15.180Z,25696.00
2019-06-01T07:32:15.171Z,26720.00
2019-06-01T07:33:15.181Z,25824.00
2019-06-01T07:34:29.405Z,25664.00
2019-06-01T07:35:16.203Z,26112.00
2019-06-01T07:36:15.128Z,27072.00
2019-06-01T07:37:15.115Z,27840.00
2019-06-01T07:38:15.101Z,28480.00
2019-06-01T07:39:15.094Z,29632.00
2019-06-01T07:40:15.083Z,30144.00
2019-06-01T07:41:15.150Z,29984.00
2019-06-01T07:42:15.072Z,29632.00
2019-06-01T07:43:15.048Z,29824.00
2019-06-01T07:44:15.044Z,29920.00
2019-06-01T07:45:15.027Z,30688.00
2019-06-01T07:46:15.017Z,30976.00
2019-06-01T07:47:15.221Z,31104.00
2019-06-01T07:48:15.010Z,31136.00
2019-06-01T07:49:14.994Z,31264.00
2019-06-01T07:50:14.974Z,32384.00
2019-06-01T07:51:14.966Z,33824.00
2019-06-01T07:52:14.953Z,32736.00
2019-06-01T07:53:15.006Z,31424.00
2019-06-01T07:54:14.941Z,32128.00
2019-06-01T07:55:14.918Z,34176.00
2019-06-01T07:56:14.909Z,33600.00
2019-06-01T07:57:14.898Z,34240.00
2019-06-01T07:58:14.897Z,36320.00
2019-06-01T07:59:14.942Z,34624.00
2019-06-01T08:00:14.905Z,32608.00
2019-06-01T08:01:14.859Z,31136.00
2019-06-01T08:02:14.853Z,29792.00
2019-06-01T08:03:14.839Z,28768.00
2019-06-01T08:04:14.822Z,28384.00
2019-06-01T08:05:15.032Z,29024.00
2019-06-01T08:06:14.801Z,29600.00
2019-06-01T08:07:14.797Z,28160.00
2019-06-01T08:08:14.783Z,27904.00
2019-06-01T08:09:14.798Z,26336.00
2019-06-01T08:10:14.776Z,24672.00
2019-06-01T08:11:14.815Z,24064.00
2019-06-01T08:12:14.736Z,25664.00
2019-06-01T08:13:14.729Z,26176.00
2019-06-01T08:14:14.714Z,30144.00
2019-06-01T08:15:14.703Z,32192.00
2019-06-01T08:16:14.692Z,31456.00
2019-06-01T08:17:14.746Z,31392.00
2019-06-01T08:18:14.671Z,32160.00
2019-06-01T08:19:14.663Z,29536.00
2019-06-01T08:20:14.651Z,30048.00
2019-06-01T08:21:14.638Z,28288.00
2019-06-01T08:22:14.628Z,25632.00
2019-06-01T08:23:14.685Z,25184.00
2019-06-01T08:24:14.704Z,26240.00
2019-06-01T08:25:14.600Z,32128.00
2019-06-01T08:26:14.585Z,31072.00
2019-06-01T08:27:14.574Z,31328.00
2019-06-01T08:28:14.840Z,31936.00
2019-06-01T08:29:14.624Z,31040.00
2019-06-01T08:30:14.541Z,27680.00
2019-06-01T08:31:14.529Z,24864.00
2019-06-01T08:32:14.519Z,26144.00
2019-06-01T08:33:14.508Z,24128.00
2019-06-01T08:34:14.497Z,23680.00
2019-06-01T08:35:14.555Z,23168.00
2019-06-01T08:36:14.475Z,23456.00
2019-06-01T08:37:14.464Z,23648.00
2019-06-01T08:38:14.453Z,23680.00
2019-06-01T08:39:14.443Z,23456.00
2019-06-01T08:40:14.432Z,22720.00
2019-06-01T08:41:14.633Z,22080.00
2019-06-01T08:42:14.414Z,22592.00
2019-06-01T08:43:14.404Z,23232.00
2019-06-01T08:44:14.388Z,23424.00
2019-06-01T08:45:14.378Z,21888.00
2019-06-01T08:46:14.367Z,21472.00
2019-06-01T08:47:14.569Z,21888.00
2019-06-01T08:48:14.346Z,21568.00
2019-06-01T08:49:14.338Z,21696.00
2019-06-01T08:50:14.328Z,21024.00
2019-06-01T08:51:14.316Z,21632.00
2019-06-01T08:52:14.301Z,22112.00
2019-06-01T08:53:14.361Z,21536.00
2019-06-01T08:54:14.280Z,21248.00
2019-06-01T08:55:14.276Z,21056.00
2019-06-01T08:56:14.267Z,21760.00
2019-06-01T08:57:14.248Z,21664.00
2019-06-01T08:58:14.310Z,21696.00
2019-06-01T08:59:14.296Z,21632.00
2019-06-01T09:00:14.222Z,21728.00
2019-06-01T09:01:14.206Z,21440.00
2019-06-01T09:02:14.206Z,21280.00
2019-06-01T09:03:14.190Z,21888.00
2019-06-01T09:04:14.183Z,22080.00
2019-06-01T09:05:24.039Z,21728.00
2019-06-01T09:06:15.151Z,22208.00
2019-06-01T09:07:14.142Z,22272.00
2019-06-01T09:08:14.131Z,22560.00
2019-06-01T09:09:14.120Z,22816.00
2019-06-01T09:10:14.114Z,22752.00
2019-06-01T09:11:14.310Z,22784.00
2019-06-01T09:12:14.160Z,23008.00
2019-06-01T09:13:14.082Z,23424.00
2019-06-01T09:14:14.092Z,23616.00
2019-06-01T09:15:14.070Z,23488.00
2019-06-01T09:16:14.068Z,23456.00
2019-06-01T09:17:18.308Z,24800.00
2019-06-01T09:18:14.023Z,31584.00
2019-06-01T09:19:14.044Z,55200.00
2019-06-01T09:20:14.006Z,76064.00
2019-06-01T09:21:14.000Z,80384.00
2019-06-01T09:22:13.981Z,83904.00
2019-06-01T09:23:14.061Z,84448.00
2019-06-01T09:24:13.963Z,76288.00
2019-06-01T09:25:13.950Z,83648.00
2019-06-01T09:26:13.940Z,93504.00
2019-06-01T09:27:13.930Z,94464.00
2019-06-01T09:28:13.918Z,86368.00
2019-06-01T09:29:14.120Z,74720.00
2019-06-01T09:30:13.897Z,68384.00
2019-06-01T09:31:13.887Z,91872.00
2019-06-01T09:32:13.881Z,80864.00
2019-06-01T09:33:13.865Z,80384.00
2019-06-01T09:34:13.854Z,74784.00
2019-06-01T09:35:13.932Z,68544.00
2019-06-01T09:36:13.832Z,70816.00
2019-06-01T09:37:13.822Z,75744.00
2019-06-01T09:38:13.814Z,92064.00
2019-06-01T09:39:13.822Z,27616.00
2019-06-01T09:40:13.796Z,27616.00
2019-06-01T09:41:13.860Z,20192.00
2019-06-01T09:42:13.772Z,24896.00
2019-06-01T09:43:13.759Z,79968.00
2019-06-01T09:44:13.747Z,27904.00
2019-06-01T09:45:13.740Z,74848.00
2019-06-01T09:46:13.727Z,107040.00
2019-06-01T09:47:13.782Z,103840.00
2019-06-01T09:48:13.711Z,100960.00
2019-06-01T09:49:13.697Z,105760.00
2019-06-01T09:50:13.688Z,102144.00
2019-06-01T09:51:13.677Z,97248.00
2019-06-01T09:52:13.666Z,96896.00
2019-06-01T09:53:13.724Z,94144.00
2019-06-01T09:54:13.643Z,95904.00
2019-06-01T09:55:13.632Z,97248.00
2019-06-01T09:56:13.623Z,99616.00
2019-06-01T09:57:13.616Z,101600.00
2019-06-01T09:58:13.601Z,100064.00
2019-06-01T09:59:13.654Z,100224.00
2019-06-01T10:00:13.582Z,64544.00
2019-06-01T10:01:13.576Z,67968.00
2019-06-01T10:02:13.563Z,24224.00
2019-06-01T10:03:13.552Z,25504.00
2019-06-01T10:04:13.541Z,21920.00
2019-06-01T10:05:13.604Z,22080.00
2019-06-01T10:06:14.369Z,103040.00
2019-06-01T10:07:13.509Z,102784.00
2019-06-01T10:08:13.500Z,105600.00
2019-06-01T10:09:13.490Z,106208.00
2019-06-01T10:10:13.486Z,109248.00
2019-06-01T10:11:13.686Z,107968.00
2019-06-01T10:12:13.460Z,100544.00
2019-06-01T10:13:13.450Z,86368.00
2019-06-01T10:14:14.236Z,91936.00
2019-06-01T10:15:13.427Z,109088.00
2019-06-01T10:16:13.418Z,103104.00
2019-06-01T10:17:13.494Z,104960.00
2019-06-01T10:18:13.402Z,108448.00
2019-06-01T10:19:13.391Z,108736.00
2019-06-01T10:20:13.379Z,109504.00
2019-06-01T10:21:13.369Z,105920.00
2019-06-01T10:22:13.358Z,106432.00
2019-06-01T10:23:13.559Z,107008.00
2019-06-01T10:24:13.342Z,104288.00
2019-06-01T10:25:13.325Z,99872.00
2019-06-01T10:26:13.319Z,104128.00
2019-06-01T10:27:13.306Z,24160.00
2019-06-01T10:28:13.309Z,26144.00
2019-06-01T10:29:13.500Z,106752.00
2019-06-01T10:30:13.280Z,99072.00
2019-06-01T10:31:13.265Z,23296.00
2019-06-01T10:32:13.267Z,20576.00
2019-06-01T10:33:13.246Z,23840.00
2019-06-01T10:34:13.235Z,103808.00
2019-06-01T10:35:13.287Z,107008.00
2019-06-01T10:36:20.634Z,23296.00
2019-06-01T10:37:14.204Z,27136.00
2019-06-01T10:38:13.195Z,85568.00
2019-06-01T10:39:13.196Z,24192.00
2019-06-01T10:40:13.173Z,22208.00
2019-06-01T10:41:13.234Z,114688.00
2019-06-01T10:42:13.153Z,117920.00
2019-06-01T10:43:13.143Z,116032.00
2019-06-01T10:44:13.131Z,119840.00
2019-06-01T10:45:13.131Z,121760.00
2019-06-01T10:46:13.112Z,119808.00
2019-06-01T10:47:13.315Z,123424.00
2019-06-01T10:48:13.092Z,92288.00
2019-06-01T10:49:13.083Z,116864.00
2019-06-01T10:50:13.072Z,107712.00
2019-06-01T10:51:13.061Z,114592.00
2019-06-01T10:52:13.054Z,112608.00
2019-06-01T10:53:13.124Z,113600.00
2019-06-01T10:54:13.033Z,111200.00
2019-06-01T10:55:13.020Z,112160.00
2019-06-01T10:56:13.011Z,114816.00
2019-06-01T10:57:13.000Z,113184.00
2019-06-01T10:58:12.995Z,116128.00
2019-06-01T10:59:13.067Z,105984.00
2019-06-01T11:00:12.971Z,116256.00
2019-06-01T11:01:12.961Z,116832.00
2019-06-01T11:02:12.951Z,113568.00
2019-06-01T11:03:12.938Z,113568.00
2019-06-01T11:04:12.928Z,115072.00
2019-06-01T11:05:12.979Z,110432.00
2019-06-01T11:06:12.911Z,104800.00
2019-06-01T11:07:12.910Z,108512.00
2019-06-01T11:08:12.889Z,47520.00
2019-06-01T11:09:12.883Z,110560.00
2019-06-01T11:10:12.869Z,110816.00
2019-06-01T11:11:12.927Z,114688.00
2019-06-01T11:12:12.854Z,115552.00
2019-06-01T11:13:12.846Z,113952.00
2019-06-01T11:14:12.841Z,115872.00
2019-06-01T11:15:12.823Z,112576.00
2019-06-01T11:16:12.811Z,113632.00
2019-06-01T11:17:12.869Z,110304.00
2019-06-01T11:18:12.810Z,108832.00
2019-06-01T11:19:12.786Z,112864.00
2019-06-01T11:20:12.777Z,113792.00
2019-06-01T11:21:12.769Z,113056.00
2019-06-01T11:22:12.763Z,116256.00
2019-06-01T11:23:12.814Z,109024.00
2019-06-01T11:24:12.785Z,108736.00
2019-06-01T11:25:12.727Z,108000.00
2019-06-01T11:26:12.815Z,105248.00
2019-06-01T11:27:12.709Z,107712.00
2019-06-01T11:28:12.704Z,109568.00
2019-06-01T11:29:12.755Z,114144.00
2019-06-01T11:30:12.680Z,113376.00
2019-06-01T11:31:12.670Z,110144.00
2019-06-01T11:32:12.660Z,111680.00
2019-06-01T11:33:12.652Z,105632.00
2019-06-01T11:34:12.641Z,98464.00
2019-06-01T11:35:12.843Z,93952.00
2019-06-01T11:36:12.621Z,100128.00
2019-06-01T11:37:15.396Z,103296.00
2019-06-01T11:38:12.602Z,107424.00
2019-06-01T11:39:12.601Z,111296.00
2019-06-01T11:40:12.586Z,114720.00
2019-06-01T11:41:12.639Z,114880.00
2019-06-01T11:42:12.561Z,112352.00
2019-06-01T11:43:12.551Z,107904.00
2019-06-01T11:44:12.546Z,102656.00
2019-06-01T11:45:12.534Z,101504.00
2019-06-01T11:46:12.529Z,102496.00
2019-06-01T11:47:12.580Z,109888.00
2019-06-01T11:48:12.514Z,113472.00
2019-06-01T11:49:12.495Z,110016.00
2019-06-01T11:50:12.483Z,103392.00
2019-06-01T11:51:12.474Z,101056.00
2019-06-01T11:52:12.465Z,97984.00
2019-06-01T11:53:12.521Z,93376.00
2019-06-01T11:54:12.453Z,98816.00
2019-06-01T11:55:12.440Z,99808.00
2019-06-01T11:56:12.429Z,97728.00
2019-06-01T11:57:12.442Z,96480.00
2019-06-01T11:58:12.418Z,101696.00
2019-06-01T11:59:12.468Z,96000.00
2019-06-01T12:00:12.388Z,94816.00
2019-06-01T12:01:12.387Z,98080.00
2019-06-01T12:02:12.381Z,98880.00
2019-06-01T12:03:12.364Z,109728.00
2019-06-01T12:04:12.349Z,49056.00
2019-06-01T12:05:12.406Z,97920.00
2019-06-01T12:06:12.329Z,88320.00
2019-06-01T12:07:17.456Z,94368.00